Time;durP1;ratioP1;P1;durP2;ratioP2;P2;SDS_P1;SDS_P2;PMS_P1;PMS_P2;Temp;Humidity;BMP_temperature;BMP_pressure;BME280_temperature;BME280_humidity;BME280_pressure;Samples;Min_cycle;Max_cycle;Signal;HPM_P1;HPM_P2
2020/12/05 09:24:42;;;;;;;21.67;15.47;;;;;;;2.69;93.17;97387.63;5126936;27;20540;-78
2020/12/05 09:27:10;;;;;;;21.03;15.40;;;;;;;3.22;93.77;97397.69;5124965;27;40774;-79
2020/12/05 09:29:37;;;;;;;20.17;14.63;;;;;;;3.74;91.93;97403.41;5125469;27;41595;-80
2020/12/05 09:32:04;;;;;;;21.50;14.90;;;;;;;4.17;89.34;97393.03;5161383;22;42868;-83
2020/12/05 09:34:34;;;;;;;20.40;15.97;;;;;;;4.46;86.45;97399.94;5036728;28;42901;-78
2020/12/05 09:37:08;;;;;;;22.93;15.67;;;;;;;4.68;84.42;97410.81;5024641;28;40882;-81
2020/12/05 09:39:36;;;;;;;20.83;15.33;;;;;;;4.85;83.22;97432.50;5041435;28;42131;-81
2020/12/05 09:42:03;;;;;;;23.87;15.97;;;;;;;4.96;81.81;97427.44;5043061;28;43418;-79
2020/12/05 09:44:31;;;;;;;19.10;15.83;;;;;;;5.08;81.05;97429.28;5114284;22;42582;-82
2020/12/05 09:47:20;;;;;;;20.27;15.03;;;;;;;5.21;80.28;97434.59;5077826;22;38567;31
2020/12/05 09:49:47;;;;;;;21.70;15.57;;;;;;;5.30;79.75;97434.88;5041794;28;42290;-82
2020/12/05 09:52:14;;;;;;;20.63;15.27;;;;;;;5.36;79.45;97438.88;5023453;28;44172;-81
2020/12/05 09:54:41;;;;;;;22.93;16.57;;;;;;;5.35;79.11;97427.53;5117969;22;42547;-83
2020/12/05 09:57:09;;;;;;;23.17;16.57;;;;;;;5.50;78.20;97432.75;5064166;28;38970;-82
2020/12/05 09:59:36;;;;;;;23.27;17.47;;;;;;;5.50;77.46;97432.75;5052044;28;41765;-84
2020/12/05 10:02:04;;;;;;;25.00;17.67;;;;;;;5.52;77.58;97429.09;5079578;28;43448;-84
2020/12/05 10:04:31;;;;;;;21.53;16.43;;;;;;;5.61;77.27;97432.88;5061637;28;42118;-84
2020/12/05 10:06:58;;;;;;;23.07;16.63;;;;;;;5.68;77.14;97424.53;5145784;22;40937;-84
2020/12/05 10:09:26;;;;;;;22.17;16.27;;;;;;;5.77;76.90;97426.53;5088272;28;43405;-84
2020/12/05 10:11:53;;;;;;;18.63;14.27;;;;;;;5.77;76.37;97423.06;5087291;28;44177;-86
2020/12/05 10:14:21;;;;;;;19.37;14.23;;;;;;;5.89;75.65;97435.41;5080865;28;42367;-85
2020/12/05 10:16:48;;;;;;;19.17;14.30;;;;;;;5.96;75.77;97428.81;5084344;28;40615;-84
2020/12/05 10:19:16;;;;;;;18.63;13.53;;;;;;;5.91;75.12;97415.16;5068331;28;42404;-83
2020/12/05 10:21:46;;;;;;;19.47;14.10;;;;;;;6.13;75.22;97440.81;5097964;27;43584;-84
2020/12/05 10:24:14;;;;;;;17.57;13.33;;;;;;;6.24;74.57;97453.25;5089932;28;43669;-85
2020/12/05 10:26:41;;;;;;;18.90;14.17;;;;;;;6.30;74.42;97466.00;5083292;28;40874;-84
2020/12/05 10:29:08;;;;;;;17.13;12.97;;;;;;;6.37;74.54;97459.34;5082872;28;41769;-84
2020/12/05 10:31:36;;;;;;;17.87;13.50;;;;;;;6.41;74.00;97455.59;5083400;28;42657;-84
2020/12/05 10:34:04;;;;;;;14.97;11.90;;;;;;;6.45;73.73;97451.78;5074307;28;42693;-84
2020/12/05 10:36:31;;;;;;;16.27;12.63;;;;;;;6.46;73.07;97458.72;5054269;28;41120;-84
2020/12/05 10:38:58;;;;;;;15.27;11.73;;;;;;;6.51;73.10;97467.16;5053162;28;43481;-85
2020/12/05 10:41:25;;;;;;;16.27;12.53;;;;;;;6.42;72.80;97462.53;5054341;28;43773;-84
2020/12/05 10:43:53;;;;;;;14.03;10.87;;;;;;;6.46;72.86;97453.47;5081803;28;42525;-84
2020/12/05 10:46:21;;;;;;;13.93;10.87;;;;;;;6.46;72.96;97453.47;5074176;28;40863;-83
2020/12/05 10:48:49;;;;;;;14.73;11.60;;;;;;;6.42;73.04;97463.38;5090755;28;41631;-85
2020/12/05 10:51:16;;;;;;;15.87;11.90;;;;;;;6.39;72.32;97473.25;5068280;28;43972;-85
2020/12/05 10:53:44;;;;;;;14.20;11.40;;;;;;;6.40;72.25;97469.66;5053580;28;42880;-84
2020/12/05 10:56:11;;;;;;;12.40;10.73;;;;;;;6.35;72.22;97455.97;5054398;28;40137;-85
2020/12/05 10:58:39;;;;;;;14.17;11.10;;;;;;;6.38;72.24;97456.63;5070147;28;41344;-82
2020/12/05 11:01:06;;;;;;;13.43;10.70;;;;;;;6.46;72.03;97467.44;5072337;28;42751;-84
2020/12/05 11:03:34;;;;;;;13.43;10.53;;;;;;;6.54;71.92;97477.47;5068707;28;42671;-85
2020/12/05 11:06:02;;;;;;;11.87;9.97;;;;;;;6.53;72.06;97475.78;5051965;28;40640;-84
2020/12/05 11:08:29;;;;;;;12.60;9.70;;;;;;;6.47;72.14;97470.94;5053116;28;43243;-84
2020/12/05 11:10:56;;;;;;;11.87;10.03;;;;;;;6.53;72.25;97475.78;5054028;28;43135;-85
2020/12/05 11:13:24;;;;;;;14.43;11.03;;;;;;;6.53;72.07;97478.41;5072727;28;43315;-85
2020/12/05 11:15:51;;;;;;;14.37;10.50;;;;;;;6.57;71.86;97485.13;5089499;28;40021;-84
2020/12/05 11:18:18;;;;;;;12.80;10.10;;;;;;;6.64;72.08;97486.41;5073522;28;42003;-84
2020/12/05 11:20:45;;;;;;;13.00;9.77;;;;;;;6.69;71.83;97489.53;5071611;28;43574;-84
2020/12/05 11:23:13;;;;;;;12.23;10.03;;;;;;;6.76;71.38;97498.72;5069621;28;44052;-84
2020/12/05 11:25:40;;;;;;;10.87;8.90;;;;;;;6.71;71.00;97469.25;5052570;28;41108;-84
2020/12/05 11:28:07;;;;;;;10.50;8.60;;;;;;;6.83;71.37;97484.19;5052592;28;42060;-85
2020/12/05 11:30:34;;;;;;;9.80;8.57;;;;;;;6.93;70.86;97499.31;5052528;28;43875;-84
2020/12/05 11:33:03;;;;;;;11.10;9.07;;;;;;;6.93;70.50;97509.84;5064545;28;42774;-85
2020/12/05 11:35:30;;;;;;;10.30;8.77;;;;;;;6.85;70.27;97503.34;5082524;28;39843;-84
2020/12/05 11:37:57;;;;;;;10.67;8.73;;;;;;;6.83;70.47;97499.97;5072975;28;42833;-84
2020/12/05 11:40:27;;;;;;;9.63;8.40;;;;;;;6.85;70.78;97498.06;5072564;28;44237;-86
2020/12/05 11:42:54;;;;;;;10.70;8.93;;;;;;;6.85;70.43;97494.59;5071831;28;42605;-84
2020/12/05 11:45:22;;;;;;;11.70;9.10;;;;;;;6.76;70.45;97493.47;5052443;28;40529;-84
2020/12/05 11:47:49;;;;;;;10.23;8.17;;;;;;;6.81;70.41;97509.75;5052049;28;43358;-84
2020/12/05 11:50:16;;;;;;;9.83;8.77;;;;;;;6.75;70.12;97497.03;5077664;28;42730;-84
2020/12/05 11:52:55;;;;;;;12.57;10.07;;;;;;;6.73;70.18;97488.41;5065884;28;42731;-84
2020/12/05 11:55:22;;;;;;;10.33;8.60;;;;;;;6.74;70.21;97487.44;5052503;28;40459;-84
2020/12/05 11:57:50;;;;;;;11.70;9.00;;;;;;;6.79;70.21;97487.16;5069987;28;41453;-84
2020/12/05 12:00:17;;;;;;;11.70;9.13;;;;;;;6.80;70.29;97467.75;5051958;28;43880;-85
2020/12/05 12:02:44;;;;;;;13.83;10.50;;;;;;;6.79;69.81;97464.31;5063379;28;42994;-84
2020/12/05 12:05:11;;;;;;;12.20;9.83;;;;;;;6.84;70.14;97467.44;5068586;28;40099;-85
2020/12/05 12:07:38;;;;;;;11.80;9.83;;;;;;;6.93;70.15;97494.91;5070036;28;41652;-85
2020/12/05 12:10:06;;;;;;;11.53;9.57;;;;;;;6.89;69.74;97492.59;5052754;28;43518;-85
2020/12/05 12:12:33;;;;;;;11.63;9.57;;;;;;;6.98;69.71;97507.75;5061455;28;43061;-84
2020/12/05 12:15:01;;;;;;;11.50;9.17;;;;;;;6.99;69.75;97515.53;5052112;28;40395;-85
2020/12/05 12:17:28;;;;;;;10.57;9.07;;;;;;;6.76;69.62;97490.81;5051745;28;42648;-86
2020/12/05 12:19:55;;;;;;;11.50;9.20;;;;;;;6.81;69.41;97499.22;5068401;28;42961;-86
2020/12/05 12:22:23;;;;;;;11.20;9.47;;;;;;;6.88;69.56;97517.22;5062907;28;43592;-85
2020/12/05 12:24:50;;;;;;;10.40;8.33;;;;;;;6.77;69.78;97508.28;5092546;28;40239;-85
2020/12/05 12:27:17;;;;;;;11.17;8.67;;;;;;;6.72;70.14;97502.50;5077443;28;41698;-88
2020/12/05 12:29:44;;;;;;;9.83;8.77;;;;;;;6.67;69.73;97504.63;5056328;28;44132;-87
2020/12/05 12:32:12;;;;;;;9.67;8.63;;;;;;;6.70;69.52;97514.91;5067757;28;42754;-89
2020/12/05 12:34:40;;;;;;;10.90;8.90;;;;;;;6.63;69.67;97523.34;5068651;28;40468;-87
2020/12/05 12:37:07;;;;;;;10.57;8.50;;;;;;;6.56;69.61;97506.25;5081758;28;42694;-85
2020/12/05 12:39:34;;;;;;;9.37;7.87;;;;;;;6.46;69.92;97490.28;5088965;28;44750;-87
2020/12/05 12:42:02;;;;;;;9.83;8.80;;;;;;;6.45;69.69;97505.22;5071647;28;42707;-85
2020/12/05 12:44:29;;;;;;;9.97;8.97;;;;;;;6.45;69.96;97507.84;5088607;28;39936;-87
2020/12/05 12:47:08;;;;;;;10.40;9.30;;;;;;;6.52;70.12;97502.19;5052373;28;42721;-85
2020/12/05 12:49:37;;;;;;;9.60;8.47;;;;;;;6.57;69.92;97497.44;5075816;28;42799;-85
2020/12/05 12:52:05;;;;;;;10.10;8.87;;;;;;;6.57;69.80;97506.16;5071850;28;44146;-86
2020/12/05 12:54:33;;;;;;;9.10;8.17;;;;;;;6.52;70.13;97495.13;5071803;28;41157;-85
2020/12/05 12:57:00;;;;;;;10.47;9.00;;;;;;;6.54;70.02;97500.28;5071248;28;42100;-86
2020/12/05 12:59:29;;;;;;;12.73;10.67;;;;;;;6.48;69.96;97488.38;5068056;28;45042;-87
2020/12/05 13:01:58;;;;;;;14.30;11.67;;;;;;;6.58;70.21;97499.97;5057518;28;42355;-85
2020/12/05 13:04:25;;;;;;;15.90;12.23;;;;;;;6.63;69.90;97497.88;5082932;28;40055;-85
2020/12/05 13:06:54;;;;;;;15.90;12.70;;;;;;;6.63;69.78;97487.34;5066857;28;42033;-85
2020/12/05 13:09:21;;;;;;;12.67;10.83;;;;;;;6.67;69.79;97498.50;5052123;28;44665;-83
2020/12/05 13:11:49;;;;;;;15.93;12.57;;;;;;;6.67;69.64;97498.50;5068068;28;42415;-85
2020/12/05 13:14:16;;;;;;;15.63;13.17;;;;;;;6.68;69.67;97511.53;5051875;28;40615;-83
2020/12/05 13:16:44;;;;;;;16.00;12.83;;;;;;;6.66;69.98;97505.56;5052080;28;42373;-83
2020/12/05 13:19:11;;;;;;;23.30;18.13;;;;;;;6.63;69.42;97497.88;5051571;28;43485;-84
2020/12/05 13:21:38;;;;;;;25.57;18.50;;;;;;;6.64;69.62;97520.59;5084745;28;41825;-82
2020/12/05 13:24:06;;;;;;;27.67;19.03;;;;;;;6.60;69.83;97523.53;5051152;28;42259;-83
2020/12/05 13:26:33;;;;;;;34.70;24.90;;;;;;;6.52;69.67;97510.91;5068838;28;43023;-84
2020/12/05 13:29:00;;;;;;;37.27;26.27;;;;;;;6.58;69.92;97528.88;5079784;28;42600;-75
2020/12/05 13:31:32;;;;;;;38.07;24.30;;;;;;;6.47;69.62;97523.50;5107660;28;41857;-84
2020/12/05 13:34:02;;;;;;;36.47;24.83;;;;;;;6.56;69.77;97533.41;5081644;28;42141;-85
2020/12/05 13:36:29;;;;;;;32.07;22.03;;;;;;;6.32;69.46;97508.75;5063689;28;42833;-85
2020/12/05 13:38:57;;;;;;;32.87;22.23;;;;;;;6.46;70.00;97519.19;5104058;28;43823;-83
2020/12/05 13:41:25;;;;;;;30.23;20.00;;;;;;;6.43;69.88;97522.88;5108496;28;42091;-84
2020/12/05 13:43:54;;;;;;;26.13;17.97;;;;;;;6.47;70.00;97521.72;5092496;28;40671;-85
2020/12/05 13:46:21;;;;;;;22.90;15.93;;;;;;;6.47;69.99;97526.16;5078490;28;42355;-86
2020/12/05 13:48:48;;;;;;;19.97;15.27;;;;;;;6.44;69.68;97528.97;5071626;28;43900;-85
2020/12/05 13:51:15;;;;;;;19.83;15.07;;;;;;;6.39;69.62;97518.78;5070722;28;44547;-83
2020/12/05 13:53:42;;;;;;;17.10;13.70;;;;;;;6.36;69.37;97528.66;5087199;28;41439;-84
2020/12/05 13:56:12;;;;;;;15.90;12.40;;;;;;;6.39;69.47;97541.59;5089218;28;41344;-83
2020/12/05 13:58:40;;;;;;;14.50;12.27;;;;;;;6.37;69.95;97543.47;5088803;28;43822;-83
2020/12/05 14:01:08;;;;;;;14.70;12.00;;;;;;;6.34;70.06;97539.28;5071639;28;43443;-83
2020/12/05 14:03:35;;;;;;;15.13;12.30;;;;;;;6.40;70.08;97551.19;5067859;28;40703;-82
2020/12/05 14:06:03;;;;;;;15.67;12.80;;;;;;;6.40;69.87;97548.53;5084061;28;42339;-85
2020/12/05 14:08:30;;;;;;;15.63;12.60;;;;;;;6.40;70.17;97540.66;5063613;28;43018;-85
2020/12/05 14:10:57;;;;;;;18.80;13.27;;;;;;;6.29;69.88;97522.13;5093188;28;42227;-83
2020/12/05 14:13:24;;;;;;;17.37;13.60;;;;;;;6.31;70.07;97523.69;5095355;28;41159;-84
